Agar, SD (57520)

5:51 AM CST on January 20, 2017 (GMT -0600)
Dakota Street | | Change Station
Active Advisory: Dense Fog Advisory

Elev 2077 ft 45.01 °N, 99.97 °W | Updated 17 seconds ago

Mostly Cloudy
Mostly Cloudy
32.7 °F
Feels Like 25 °F
N
9.6
Wind Variable Wind from SE
Gusts 12.3 mph

Today
High -- | Low -- °F
--% Chance of Precip.
Yesterday
High -- | Low -- °F
Precip. -- in
Pressure 29.46 in
Visibility 0.2 miles
Clouds
Windchill 25 °F
Dew Point 30 °F
Humidity 90%
Rainfall 0.00 in
Snow Depth Not available.
8:10 AM 5:32 PM
Last Quarter, 45% visible
METAR KPIR 201053Z AUTO 28004KT 1/4SM FZFG VV001 M07/M08 A2940 RMK AO2 SLP976 I1011 T10721078
Pressure 29.46 in
Visibility 0.2 miles
Clouds
Windchill 25 °F
Dew Point 30 °F
Humidity 90%
Rainfall 0.00 in
Snow Depth Not available.
8:10 AM 5:32 PM
Last Quarter, 45% visible
METAR KPIR 201053Z AUTO 28004KT 1/4SM FZFG VV001 M07/M08 A2940 RMK AO2 SLP976 I1011 T10721078

Get Your Daily Forecast Email!

Thanks for signing up!

Be on the lookout for a verification email in your inbox.

You'll start receiving the daily forecast at 8 AM.

×

10-Day Weather Forecast

Almanac

Astronomy

Jan. 20, 2017 Rise Set
Actual Time
Civil Twilight
Nautical Twilight
Astronomical Twilight
Moon
Length of Visible Light
Length of Day
Tomorrow will be .
, % of the Moon is Illuminated

Today's Extremes

State Highs State Lows

Community

WunderPhotos

Upload Photos

1,962,540 photos uploaded!

WunderBlog® & News

Nearby

Air Quality

  Air Quality AQ Index Pollutant
Not available.

Snow Depth

Station Depth Elevation

Earthquake Activity

City Distance Mag. Time & Date
Minimum magnitude displayed is 2.5.

Coastal Water Temperatures

Place Temperature

Stations

Nearby Weather Stations

Station Location Temp. Windchill Dew Point Humidity Wind Precip. Elev Updated Type
                   

Watches & Warnings

Dense Fog Advisory
Issued: 2:32 AM MST Jan. 20, 2017 – National Weather Service

... Dense fog advisory remains in effect until noon CST /11 am
MST/ today...

* visibility... a quarter mile or less.

* Impacts... low visibility will result in difficult driving
conditions. In areas where the temperature is below freezing... the
fog may deposit on objects and surfaces including sidewalks and
roads... resulting in patchy slick spots. Travelers take caution.

Precautionary/preparedness actions...

A dense fog advisory means visibilities will frequently be
reduced to less than one quarter mile. If driving... slow down...
use your headlights... and leave plenty of distance ahead of you.